Aviation Digital Data Service (ADDS)

Output produced by METARs form (1714 UTC 25 May 2015)
found at http://www.aviationweather.gov/adds/metars/
 
KPIA 251139Z 2512/2612 18015G24KT 3SM -SHRA BR SCT015 OVC020 
     FM251400 23015G23KT P6SM BKN025 
     FM251600 22014G20KT P6SM SCT040 
     FM260000 18010KT P6SM BKN250 
     FM260600 18009KT 5SM -SHRA VCTS BKN025CB